Latest Weather Observations for Onslow Airport

IDW60801

Issued at 1:05 pm WST Monday 28 July 2014 (issued every 30 minutes, with the page automatically refreshed every 10 minutes)

About weather observations | Map of weather stations | Latest weather observations for WA | Other Formats
Station Details ID: 005017 Name: ONSLOW AIRPORT Lat: -21.67 Lon: 115.11 Height: 10.5 m
Data from the previous 72 hours. | See also: Recent months at Onslow Airport
Date/Time
WST
Temp
°C
App
Temp
°C
Dew
Point
Rel
Hum
%
Delta-T
°C
Wind Press
QNH
hPa
Press
MSL
hPa
Rain
since 9 am
mm
Dir
 
Spd
km/h
Gust
km/h
Spd
kts
Gust
kts
28/01:00pm 29.0 25.4 3.1 19 12.9 ESE 11 17 6 9 1019.4 1019.4 0.0
28/12:30pm 28.5 25.2 2.7 19 12.7 ESE 9 19 5 10 1019.9 - 0.0
28/12:00pm 28.6 25.2 2.0 18 13.0 SE 9 13 5 7 1020.4 1020.4 0.0
28/11:30am 27.9 23.7 1.4 18 12.8 ESE 13 19 7 10 1020.8 - 0.0
28/11:00am 26.9 21.8 0.6 18 12.4 ESE 17 20 9 11 1021.2 1021.2 0.0
28/10:30am 25.4 20.8 1.5 21 11.3 SE 15 19 8 10 1021.6 - 0.0
28/10:00am 24.4 20.0 2.5 24 10.5 SE 15 17 8 9 1021.7 1021.7 0.0
28/09:30am 22.6 18.9 4.2 30 9.0 SE 13 15 7 8 1021.7 - 0.0
28/09:00am 20.9 17.6 4.5 34 7.9 SSE 11 13 6 7 1021.5 1021.5 0.0
28/08:30am 18.7 16.3 7.2 47 5.8 SSE 9 13 5 7 1021.2 - 0.0
28/08:00am 16.7 14.8 7.6 55 4.6 S 7 9 4 5 1021.1 1021.1 0.0
28/07:30am 14.6 12.2 6.9 60 3.8 S 9 11 5 6 1020.9 - 0.0
28/07:00am 13.2 9.8 6.1 62 3.4 SSE 13 15 7 8 1020.8 1020.8 0.0
28/06:30am 13.1 10.1 6.2 63 3.3 SE 11 13 6 7 1020.6 - 0.0
28/06:00am 13.1 11.2 6.7 65 3.1 SSE 6 7 3 4 1020.4 1020.4 0.0
28/05:30am 13.3 11.3 6.4 63 3.3 ESE 6 9 3 5 1020.2 - 0.0
28/05:00am 13.0 10.4 6.1 63 3.3 SSE 9 11 5 6 1020.1 1020.1 0.0
28/04:30am 12.8 9.2 6.6 66 3.0 SSE 15 17 8 9 1020.0 - 0.0
28/04:00am 13.6 11.8 9.5 76 2.1 S 9 9 5 5 1019.8 1019.8 0.0
28/03:30am 13.5 11.7 9.4 76 2.1 SSW 9 11 5 6 1019.8 - 0.0
28/03:00am 14.2 12.8 8.8 70 2.7 SSE 6 7 3 4 1019.8 1019.8 0.0
28/02:30am 14.9 14.7 9.1 68 3.0 CALM 0 0 0 0 1019.9 - 0.0
28/02:00am 15.1 14.1 9.0 67 3.1 E 4 9 2 5 1019.9 1019.9 0.0
28/01:30am 15.9 15.8 9.6 66 3.3 CALM 0 0 0 0 1020.0 - 0.0
28/01:00am 16.5 16.1 11.0 70 2.9 SSW 4 6 2 3 1020.4 1020.4 0.0
28/12:30am 16.5 15.7 11.2 71 2.9 W 6 7 3 4 1020.5 - 0.0
28/12:00am 16.8 16.2 10.4 66 3.4 ENE 4 7 2 4 1020.6 1020.6 0.0
 
Date/Time
WST
Temp
°C
App
Temp
°C
Dew
Point
Rel
Hum
%
Delta-T
°C
Wind Press
QNH
hPa
Press
MSL
hPa
Rain
since 9 am
mm
Dir
 
Spd
km/h
Gust
km/h
Spd
kts
Gust
kts
27/11:30pm 16.2 13.6 9.2 63 3.6 WNW 13 15 7 8 1020.6 - 0.0
27/11:00pm 16.6 14.2 10.0 65 3.5 N 13 15 7 8 1020.9 1020.9 0.0
27/10:30pm 18.2 15.4 8.5 53 5.0 NNE 13 15 7 8 1021.0 - 0.0
27/10:00pm 17.4 15.4 11.4 68 3.2 NNE 13 15 7 8 1021.0 1021.0 0.0
27/09:30pm 17.6 15.8 9.5 59 4.2 NNE 9 13 5 7 1020.9 - 0.0
27/09:00pm 18.1 17.7 9.7 58 4.4 NNE 2 9 1 5 1020.8 1020.8 0.0
27/08:30pm 18.6 18.6 9.9 57 4.6 CALM 0 0 0 0 1020.9 - 0.0
27/08:00pm 17.4 16.3 10.8 65 3.5 N 7 9 4 5 1020.8 1020.8 0.0
27/07:30pm 18.3 18.4 11.4 64 3.8 WNW 2 6 1 3 1020.5 - 0.0
27/07:00pm 18.5 17.2 11.3 63 3.9 W 9 13 5 7 1020.3 1020.3 0.0
27/06:30pm 19.2 17.2 11.5 61 4.2 NW 13 15 7 8 1020.0 - 0.0
27/06:00pm 20.3 18.4 10.4 53 5.3 NW 11 15 6 8 1019.8 1019.8 0.0
27/05:30pm 22.6 18.7 3.2 28 9.3 NW 13 19 7 10 1019.2 - 0.0
27/05:00pm 24.5 20.6 1.4 22 10.8 WNW 11 13 6 7 1019.1 1019.1 0.0
27/04:30pm 25.7 21.6 2.4 22 11.3 WNW 13 17 7 9 1018.9 - 0.0
27/04:00pm 26.1 22.1 2.7 22 11.4 WNW 13 17 7 9 1018.7 1018.7 0.0
27/03:30pm 26.9 23.9 4.0 23 11.5 WNW 9 15 5 8 1018.7 - 0.0
27/03:00pm 26.3 22.0 0.9 19 12.0 N 13 19 7 10 1019.0 1019.0 0.0
27/02:30pm 26.3 21.1 2.3 21 11.6 N 19 24 10 13 1019.2 - 0.0
27/02:00pm 26.3 22.0 3.5 23 11.3 N 15 20 8 11 1019.2 1019.2 0.0
27/01:30pm 26.4 20.9 0.9 19 12.1 N 19 24 10 13 1019.5 - 0.0
27/01:00pm 26.8 21.8 1.3 19 12.1 N 17 22 9 12 1019.8 1019.8 0.0
27/12:30pm 26.5 22.5 3.1 22 11.5 NNE 13 17 7 9 1020.2 - 0.0
27/12:00pm 26.0 22.1 3.3 23 11.1 NNE 13 20 7 11 1020.7 1020.7 0.0
27/11:30am 26.4 21.6 0.2 18 12.2 ENE 15 20 8 11 1021.1 - 0.0
27/11:00am 25.7 20.2 0.4 19 11.7 E 19 24 10 13 1021.5 1021.5 0.0
27/10:30am 23.7 18.2 2.0 24 10.3 SE 20 24 11 13 1021.9 - 0.0
27/10:00am 22.7 17.6 2.8 27 9.4 SE 19 26 10 14 1022.0 1022.0 0.0
27/09:30am 20.6 15.4 3.3 32 8.2 SE 20 26 11 14 1022.0 - 0.0
27/09:00am 18.3 13.8 4.1 39 6.7 SSE 17 20 9 11 1022.2 1022.2 0.0
27/08:30am 16.4 12.1 5.1 47 5.4 SE 17 19 9 10 1022.3 - 0.0
27/08:00am 14.5 11.4 5.6 55 4.2 SE 11 13 6 7 1022.0 1022.0 0.0
27/07:30am 12.0 9.4 5.9 66 2.9 SSE 9 13 5 7 1021.6 - 0.0
27/07:00am 11.0 7.6 6.0 71 2.3 S 13 17 7 9 1021.3 1021.3 0.0
27/06:30am 10.3 6.4 5.5 72 2.2 S 15 15 8 8 1021.3 - 0.0
27/06:00am 10.7 7.2 5.3 69 2.5 S 13 13 7 7 1021.5 1021.5 0.0
27/05:30am 11.1 7.5 5.2 67 2.7 S 13 15 7 8 1021.2 - 0.0
27/05:00am 11.9 8.4 5.5 65 3.0 S 13 15 7 8 1021.2 1021.2 0.0
27/04:30am 12.5 8.6 5.2 61 3.4 S 15 17 8 9 1021.1 - 0.0
27/04:00am 12.9 9.6 6.3 64 3.1 S 13 15 7 8 1021.0 1021.0 0.0
27/03:30am 13.2 9.9 6.5 64 3.2 SSW 13 15 7 8 1020.9 - 0.0
27/03:00am 13.3 9.8 7.3 67 2.9 SSW 15 17 8 9 1020.7 1020.7 0.0
27/02:30am 13.5 10.0 7.3 66 3.0 SSW 15 17 8 9 1020.8 - 0.0
27/02:00am 13.4 9.9 7.4 67 2.9 SSW 15 17 8 9 1021.0 1021.0 0.0
27/01:30am 13.7 10.4 7.9 68 2.9 SW 15 17 8 9 1021.2 - 0.0
27/01:00am 13.5 10.5 7.7 68 2.8 WSW 13 15 7 8 1021.4 1021.4 0.0
27/12:30am 14.1 10.9 6.9 62 3.5 W 13 15 7 8 1021.6 - 0.0
27/12:00am 15.0 11.7 6.3 56 4.2 W 13 17 7 9 1021.8 1021.8 0.0
 
Date/Time
WST
Temp
°C
App
Temp
°C
Dew
Point
Rel
Hum
%
Delta-T
°C
Wind Press
QNH
hPa
Press
MSL
hPa
Rain
since 9 am
mm
Dir
 
Spd
km/h
Gust
km/h
Spd
kts
Gust
kts
26/11:30pm 14.6 11.2 5.7 55 4.2 W 13 15 7 8 1021.7 - 0.0
26/11:00pm 14.2 10.9 6.3 59 3.8 W 13 13 7 7 1021.7 1021.7 0.0
26/10:30pm 14.2 11.2 6.1 58 3.9 W 11 13 6 7 1021.7 - 0.0
26/10:00pm 14.8 11.8 6.1 56 4.2 W 11 11 6 6 1021.6 1021.6 0.0
26/09:30pm 15.5 12.7 7.0 57 4.2 WSW 11 11 6 6 1021.5 - 0.0
26/09:00pm 15.6 12.5 7.1 57 4.2 SW 13 13 7 7 1021.3 1021.3 0.0
26/08:30pm 16.1 13.0 7.1 55 4.5 WSW 13 17 7 9 1021.3 - 0.0
26/08:00pm 16.4 13.3 7.1 54 4.6 WSW 13 15 7 8 1021.2 1021.2 0.0
26/07:30pm 17.4 14.3 7.2 51 5.1 WSW 13 17 7 9 1021.2 - 0.0
26/07:00pm 17.6 14.1 7.4 51 5.1 WSW 15 17 8 9 1020.8 1020.8 0.0
26/06:30pm 18.3 15.6 8.8 54 4.9 W 13 17 7 9 1020.7 - 0.0
26/06:00pm 19.6 16.3 9.5 52 5.3 W 17 20 9 11 1020.6 1020.6 0.0
26/05:30pm 21.2 16.7 6.3 38 7.5 W 19 24 10 13 1020.5 - 0.0
26/05:00pm 22.0 17.9 7.8 40 7.4 W 19 24 10 13 1020.4 1020.4 0.0
26/04:30pm 23.6 17.9 -0.6 20 10.9 N 19 24 10 13 1020.1 - 0.0
26/04:00pm 24.0 18.5 0.4 21 10.8 NW 19 22 10 12 1020.2 1020.2 0.0
26/03:30pm 24.2 18.7 0.5 21 10.9 NW 19 24 10 13 1020.2 - 0.0
26/03:00pm 25.0 19.8 2.4 23 10.8 NNW 19 24 10 13 1020.1 1020.1 0.0
26/02:30pm 24.7 19.4 2.8 24 10.6 N 20 26 11 14 1020.1 - 0.0
26/02:00pm 25.7 20.5 2.4 22 11.2 N 19 20 10 11 1020.5 1020.5 0.0
26/01:30pm 25.4 20.7 0.8 20 11.5 E 15 22 8 12 1020.9 - 0.0
26/01:00pm 24.9 21.0 1.1 21 11.1 SE 11 19 6 10 1021.3 1021.3 0.0
26/12:30pm 24.3 20.0 1.2 22 10.8 ESE 13 17 7 9 1021.9 - 0.0
26/12:00pm 24.2 19.8 0.5 21 10.9 ESE 13 19 7 10 1022.4 1022.4 0.0
26/11:30am 23.7 19.2 2.0 24 10.3 SE 15 20 8 11 1022.9 - 0.0
26/11:00am 23.1 18.3 2.6 26 9.7 SE 17 22 9 12 1023.4 1023.4 0.0
26/10:30am 22.8 18.3 4.3 30 9.1 SE 17 20 9 11 1023.7 - 0.0
26/10:00am 21.5 17.6 5.4 35 8.0 SE 15 17 8 9 1023.9 1023.9 0.0
26/09:30am 19.3 16.4 8.3 49 5.7 ESE 13 15 7 8 1023.9 - 0.0
26/09:00am 16.7 14.1 9.4 62 3.8 ESE 13 15 7 8 1023.6 1023.6 0.0
26/08:30am 14.9 12.6 9.1 68 3.0 ESE 11 15 6 8 1023.2 - 0.0
26/08:00am 13.3 11.4 9.0 75 2.2 ESE 9 11 5 6 1022.8 1022.8 0.0
26/07:30am 11.6 9.6 8.5 81 1.5 ESE 9 9 5 5 1022.3 - 0.0
26/07:00am 10.3 8.0 7.5 83 1.3 E 9 13 5 7 1021.9 1021.9 0.0
26/06:30am 10.4 8.1 7.5 82 1.4 ESE 9 11 5 6 1021.6 - 0.0
26/06:00am 10.6 8.4 7.7 82 1.4 ESE 9 11 5 6 1021.2 1021.2 0.0
26/05:30am 10.8 8.6 8.0 83 1.4 E 9 11 5 6 1020.9 - 0.0
26/05:00am 10.5 8.3 7.7 83 1.3 E 9 11 5 6 1020.7 1020.7 0.0
26/04:30am 10.9 8.7 8.0 82 1.4 ESE 9 11 5 6 1020.6 - 0.0
26/04:00am 10.7 9.1 7.8 82 1.4 SE 6 7 3 4 1020.7 1020.7 0.0
26/03:30am 10.8 8.6 7.7 81 1.5 SE 9 11 5 6 1020.7 - 0.0
26/03:00am 10.6 8.0 7.7 82 1.4 SSE 11 13 6 7 1020.9 1020.9 0.0
26/02:30am 10.7 8.1 7.6 81 1.5 SSE 11 13 6 7 1020.9 - 0.0
26/02:00am 11.0 8.4 7.9 81 1.5 SSE 11 11 6 6 1020.9 1020.9 0.0
26/01:30am 11.4 8.5 8.3 81 1.5 SSE 13 15 7 8 1021.1 - 0.0
26/01:00am 11.6 8.8 8.6 82 1.5 SSE 13 15 7 8 1021.2 1021.2 0.0
26/12:30am 11.5 8.7 8.5 82 1.5 SSE 13 17 7 9 1021.3 - 0.0
26/12:00am 12.7 11.4 9.9 83 1.4 SE 7 9 4 5 1021.3 1021.3 0.0
 
Date/Time
WST
Temp
°C
App
Temp
°C
Dew
Point
Rel
Hum
%
Delta-T
°C
Wind Press
QNH
hPa
Press
MSL
hPa
Rain
since 9 am
mm
Dir
 
Spd
km/h
Gust
km/h
Spd
kts
Gust
kts
25/11:30pm 13.6 12.1 10.6 82 1.6 SE 9 11 5 6 1021.4 - 0.0
25/11:00pm 14.0 12.6 10.8 81 1.7 ENE 9 9 5 5 1021.3 1021.3 0.0
25/10:30pm 15.1 14.4 11.5 79 1.9 NE 6 7 3 4 1021.4 - 0.0
25/10:00pm 15.0 13.9 10.0 72 2.6 ENE 6 7 3 4 1021.6 1021.6 0.0
25/09:30pm 15.7 14.6 10.5 71 2.7 NE 7 7 4 4 1021.6 - 0.0
25/09:00pm 15.8 14.2 10.3 70 2.9 N 9 9 5 5 1021.4 1021.4 0.0
25/08:30pm 15.6 14.4 10.4 71 2.7 N 7 9 4 5 1021.3 - 0.0
25/08:00pm 16.1 14.1 10.2 68 3.1 N 11 11 6 6 1021.0 1021.0 0.0
25/07:30pm 15.9 13.4 9.6 66 3.3 N 13 13 7 7 1020.8 - 0.0
25/07:00pm 16.9 14.8 9.6 62 3.8 N 11 13 6 7 1020.6 1020.6 0.0
25/06:30pm 17.5 14.5 9.2 58 4.3 N 15 17 8 9 1020.2 - 0.0
25/06:00pm 18.1 14.7 9.2 56 4.6 N 17 22 9 12 1019.8 1019.8 0.0
25/05:30pm 19.4 14.9 8.7 50 5.6 N 22 28 12 15 1019.7 - 0.0
25/05:00pm 20.0 15.1 8.4 47 6.0 N 24 30 13 16 1019.6 1019.6 0.0
25/04:30pm 20.6 14.7 7.6 43 6.7 N 28 35 15 19 1019.6 - 0.0
25/04:00pm 21.0 14.9 6.5 39 7.3 N 28 35 15 19 1019.7 1019.7 0.0
25/03:30pm 21.5 15.3 7.7 41 7.2 N 30 35 16 19 1019.8 - 0.0
25/03:00pm 21.6 14.9 7.4 40 7.3 N 32 37 17 20 1019.7 1019.7 0.0
25/02:30pm 21.7 15.0 7.2 39 7.5 N 32 39 17 21 1019.9 - 0.0
25/02:00pm 21.8 15.2 6.1 36 7.9 N 30 37 16 20 1020.0 1020.0 0.0
25/01:30pm 22.0 15.3 5.8 35 8.1 N 30 35 16 19 1020.2 - 0.0

Other Formats:

Comma delimited format used in spreadsheet applications
http://www.bom.gov.au/fwo/IDW60801/IDW60801.95305.axf

JavaScript Object Notation format (JSON) in row-major order
http://www.bom.gov.au/fwo/IDW60801/IDW60801.95305.json